Time;durP1;ratioP1;P1;durP2;ratioP2;P2;SDS_P1;SDS_P2;PMS_P1;PMS_P2;Temp;Humidity;BMP_temperature;BMP_pressure;BME280_temperature;BME280_humidity;BME280_pressure;Samples;Min_cycle;Max_cycle;Signal;HPM_P1;HPM_P2
2022/02/27 00:01:53;;;;;;;18.33;6.03;;;;;;;18.77;34.86;101521.06;4936165;29;20106;-79
2022/02/27 00:04:19;;;;;;;28.35;6.72;;;;;;;18.89;34.79;101513.84;4936562;29;20039;-78
2022/02/27 00:06:44;;;;;;;16.63;4.95;;;;;;;18.79;34.90;101523.47;4936229;29;20052;-78
2022/02/27 00:09:10;;;;;;;20.02;5.00;;;;;;;18.79;34.93;101520.69;4936151;29;20036;-78
2022/02/27 00:11:35;;;;;;;19.15;4.95;;;;;;;18.78;35.06;101519.88;4936252;29;20083;-78
2022/02/27 00:14:01;;;;;;;20.60;6.03;;;;;;;18.84;34.86;101520.47;4936158;29;20394;-78
2022/02/27 00:16:27;;;;;;;22.42;5.50;;;;;;;18.82;34.72;101526.34;4936190;29;20032;-85
2022/02/27 00:18:52;;;;;;;14.43;5.00;;;;;;;18.71;34.99;101527.19;4936358;29;20092;-78
2022/02/27 00:21:18;;;;;;;20.65;5.38;;;;;;;18.86;34.81;101526.44;4936139;29;20028;-78
2022/02/27 00:23:43;;;;;;;19.70;4.57;;;;;;;18.87;34.58;101525.28;4936333;29;20034;-87
2022/02/27 00:26:09;;;;;;;18.45;5.40;;;;;;;18.83;34.77;101533.50;4936158;29;20028;-78
2022/02/27 00:28:34;;;;;;;25.50;6.00;;;;;;;18.91;34.51;101533.72;4936245;29;20055;-78
2022/02/27 00:31:00;;;;;;;19.20;6.45;;;;;;;18.78;34.58;101527.38;4935917;29;20475;-87
2022/02/27 00:33:26;;;;;;;19.30;5.00;;;;;;;18.80;34.57;101523.09;4936241;29;20044;-78
2022/02/27 00:35:52;;;;;;;22.58;5.32;;;;;;;18.90;34.81;101526.56;4934734;29;20035;-86
2022/02/27 00:38:17;;;;;;;23.52;6.40;;;;;;;18.80;34.56;101522.31;4935968;29;20023;-87
2022/02/27 00:40:43;;;;;;;23.65;6.65;;;;;;;18.58;34.89;101521.63;4934351;29;20031;-78
2022/02/27 00:43:08;;;;;;;23.35;5.63;;;;;;;18.61;35.03;101525.66;4918756;29;20036;-86
2022/02/27 00:45:34;;;;;;;18.70;6.03;;;;;;;18.70;34.81;101512.53;4936135;29;20020;-78
2022/02/27 00:48:00;;;;;;;16.75;5.72;;;;;;;18.49;35.05;101518.19;4935520;29;20031;-78
2022/02/27 00:50:26;;;;;;;17.20;4.97;;;;;;;18.70;34.41;101509.75;4935589;29;20443;-78
2022/02/27 00:52:52;;;;;;;17.40;4.72;;;;;;;18.69;34.83;101502.63;4935442;29;20028;-78
2022/02/27 00:55:18;;;;;;;20.13;5.05;;;;;;;18.81;34.58;101502.56;4935601;29;20076;-84
2022/02/27 00:57:44;;;;;;;24.90;5.90;;;;;;;18.73;34.38;101503.50;4935488;29;20028;-81
2022/02/27 01:00:09;;;;;;;19.48;6.05;;;;;;;18.84;34.38;101490.81;4935716;29;20443;-82
2022/02/27 01:02:35;;;;;;;17.67;5.30;;;;;;;18.82;34.48;101503.41;4935567;29;20027;-82
2022/02/27 01:05:01;;;;;;;20.90;4.95;;;;;;;18.82;34.33;101498.66;4935492;29;20051;-78
2022/02/27 01:07:27;;;;;;;19.50;6.10;;;;;;;18.91;34.26;101503.25;4935444;29;20032;-80
2022/02/27 01:09:53;;;;;;;16.20;4.88;;;;;;;18.86;34.39;101507.06;4935408;29;20371;-78
2022/02/27 01:12:18;;;;;;;15.63;6.57;;;;;;;18.91;34.15;101506.03;4935550;29;20035;-86
2022/02/27 01:14:46;;;;;;;18.85;5.68;;;;;;;19.01;34.19;101502.75;4935637;29;20028;-78
2022/02/27 01:17:13;;;;;;;21.05;6.07;;;;;;;19.03;34.12;101497.66;4934951;29;20050;-86
2022/02/27 01:19:38;;;;;;;20.67;6.10;;;;;;;19.02;34.00;101496.06;4935476;29;20364;-86
2022/02/27 01:22:04;;;;;;;19.55;5.82;;;;;;;19.02;34.27;101491.31;4935362;29;20155;-81
2022/02/27 01:24:30;;;;;;;22.00;7.88;;;;;;;18.98;34.31;101504.28;4935378;29;20055;-78
2022/02/27 01:26:56;;;;;;;23.85;6.00;;;;;;;18.95;34.56;101510.50;4934983;29;20514;-78
2022/02/27 01:29:22;;;;;;;22.58;6.70;;;;;;;18.94;34.56;101511.66;4934207;29;20146;-87
2022/02/27 01:31:47;;;;;;;29.00;8.52;;;;;;;18.83;34.87;101503.03;4935285;29;20068;-78
2022/02/27 01:34:13;;;;;;;23.85;5.97;;;;;;;18.70;35.37;101500.66;4935231;29;20391;-79
2022/02/27 01:36:38;;;;;;;27.90;5.82;;;;;;;18.66;35.50;101500.53;4935359;29;20106;-78
2022/02/27 01:39:04;;;;;;;28.80;8.40;;;;;;;18.70;35.54;101506.19;4935421;29;20020;-79
2022/02/27 01:41:30;;;;;;;42.30;7.55;;;;;;;18.70;35.63;101498.69;4935231;29;20028;-79
2022/02/27 01:43:55;;;;;;;28.40;6.30;;;;;;;18.74;35.50;101494.09;4934789;29;20031;-78
2022/02/27 01:46:21;;;;;;;28.00;7.18;;;;;;;18.75;35.38;101487.38;4917849;29;20036;-86
2022/02/27 01:48:47;;;;;;;23.88;6.18;;;;;;;18.80;35.58;101489.09;4935193;29;20098;-78
2022/02/27 01:51:13;;;;;;;34.58;8.43;;;;;;;18.69;35.82;101477.69;4935056;29;20082;-79
2022/02/27 01:53:39;;;;;;;25.65;6.85;;;;;;;18.62;36.07;101479.41;4935104;29;20601;-78
2022/02/27 01:56:05;;;;;;;31.15;7.07;;;;;;;18.48;36.50;101477.03;4935047;29;20051;-78
2022/02/27 01:58:32;;;;;;;29.42;8.13;;;;;;;18.47;36.66;101475.41;4935145;29;20501;-79
2022/02/27 02:00:58;;;;;;;31.35;6.97;;;;;;;18.34;37.08;101471.84;4935092;29;20047;-85
2022/02/27 02:03:25;;;;;;;27.98;7.60;;;;;;;18.42;36.88;101468.16;4933948;29;20034;-78
2022/02/27 02:05:51;;;;;;;31.38;7.10;;;;;;;18.43;37.10;101472.53;4937346;29;20050;-78
2022/02/27 02:08:17;;;;;;;25.60;6.47;;;;;;;18.47;37.00;101475.41;4938651;29;20475;-78
2022/02/27 02:10:43;;;;;;;26.23;7.47;;;;;;;18.29;37.31;101475.69;4938592;29;20038;-78
2022/02/27 02:13:10;;;;;;;23.73;6.00;;;;;;;18.34;37.41;101468.28;4938416;29;20054;-78
2022/02/27 02:15:36;;;;;;;21.95;7.93;;;;;;;18.46;37.12;101471.03;4938076;29;20027;-80
2022/02/27 02:18:06;;;;;;;28.55;7.40;;;;;;;18.41;37.17;101463.78;4938238;29;20132;-80
2022/02/27 02:20:31;;;;;;;24.77;6.93;;;;;;;18.47;37.08;101467.13;4938395;29;20038;-78
2022/02/27 02:22:57;;;;;;;19.85;6.28;;;;;;;18.24;37.60;101466.81;4938332;29;20031;-86
2022/02/27 02:25:23;;;;;;;24.40;6.72;;;;;;;18.17;37.77;101461.03;4938242;29;20028;-84
2022/02/27 02:27:49;;;;;;;20.48;6.15;;;;;;;18.34;37.29;101471.03;4938324;29;20034;-82
2022/02/27 02:30:14;;;;;;;20.08;6.28;;;;;;;18.23;37.78;101465.19;4938077;29;20039;-81
2022/02/27 02:32:54;;;;;;;24.83;7.07;;;;;;;18.22;37.84;101464.38;4938300;29;20020;-78
2022/02/27 02:35:21;;;;;;;;;;;;;;;18.15;37.88;101450.34;4938649;29;20036;-78
2022/02/27 02:37:47;;;;;;;20.92;6.13;;;;;;;18.12;37.96;101451.00;4938197;29;20436;-85
2022/02/27 02:40:13;;;;;;;26.98;6.18;;;;;;;18.17;37.98;101455.50;4938156;29;20028;-79
2022/02/27 02:42:43;;;;;;;26.08;8.27;;;;;;;18.10;38.25;101458.84;4921037;29;20115;-82
2022/02/27 02:45:10;;;;;;;21.45;7.50;;;;;;;18.06;38.48;101451.59;4937925;29;20103;-79
2022/02/27 02:47:55;;;;;;;26.63;6.30;;;;;;;17.99;38.77;101461.28;4937878;29;20035;-86
2022/02/27 02:50:22;;;;;;;25.13;6.63;;;;;;;18.03;38.45;101450.34;4937697;29;20023;-79
2022/02/27 02:52:48;;;;;;;32.55;7.13;;;;;;;18.22;38.06;101449.75;4937898;29;20483;-78
2022/02/27 02:55:16;;;;;;;23.95;7.50;;;;;;;18.28;38.01;101449.16;4920438;29;20031;-78
2022/02/27 02:57:42;;;;;;;27.67;7.75;;;;;;;18.35;37.68;101456.06;4937716;29;20043;-79
2022/02/27 03:00:11;;;;;;;26.13;6.65;;;;;;;18.15;38.55;101461.41;4937662;29;20035;-79
2022/02/27 03:02:37;;;;;;;31.10;7.70;;;;;;;18.11;38.50;101456.91;4937610;29;20039;-86
2022/02/27 03:05:05;;;;;;;30.02;8.43;;;;;;;18.23;38.63;101460.47;4920039;29;20052;-78
2022/02/27 03:07:38;;;;;;;21.60;6.10;;;;;;;18.27;38.45;101455.03;4919471;29;20413;-86
2022/02/27 03:10:06;;;;;;;19.45;6.85;;;;;;;18.22;38.74;101471.88;4919365;29;20040;-79
2022/02/27 03:12:32;;;;;;;26.30;6.93;;;;;;;18.24;38.42;101467.59;4936570;29;20424;-88
2022/02/27 03:14:58;;;;;;;25.77;7.30;;;;;;;18.18;38.56;101460.69;4936261;29;20028;-86
2022/02/27 03:17:23;;;;;;;34.15;7.05;;;;;;;18.16;38.54;101470.50;4936447;29;20554;-78
2022/02/27 03:19:49;;;;;;;27.70;8.18;;;;;;;18.19;38.70;101467.03;4936310;29;20497;-78
2022/02/27 03:22:15;;;;;;;34.05;7.65;;;;;;;18.09;38.95;101473.84;4936150;29;20036;-78
2022/02/27 03:24:40;;;;;;;19.55;6.53;;;;;;;18.10;39.05;101466.34;4936034;29;20129;-79
2022/02/27 03:27:06;;;;;;;25.90;6.32;;;;;;;18.17;38.74;101461.03;4936186;29;20035;-79
2022/02/27 03:29:31;;;;;;;29.45;6.60;;;;;;;17.87;39.59;101452.19;4936049;29;20042;-79
2022/02/27 03:31:59;;;;;;;29.15;7.47;;;;;;;17.94;39.34;101455.19;4935970;29;20110;-80
2022/02/27 03:34:25;;;;;;;28.67;6.32;;;;;;;17.92;39.35;101449.19;4936136;29;20087;-85
2022/02/27 03:36:50;;;;;;;19.27;6.88;;;;;;;18.04;39.24;101446.41;4936143;29;20028;-78
2022/02/27 03:39:16;;;;;;;22.92;6.30;;;;;;;17.97;39.38;101443.41;4936043;29;20055;-79
2022/02/27 03:41:42;;;;;;;25.83;7.35;;;;;;;18.10;39.05;101450.56;4935984;29;20114;-78
2022/02/27 03:44:07;;;;;;;22.15;5.90;;;;;;;17.98;39.25;101453.31;4935876;29;20035;-78
2022/02/27 03:46:34;;;;;;;26.75;5.45;;;;;;;17.89;39.52;101455.41;4935781;29;20027;-79
2022/02/27 03:49:02;;;;;;;28.42;7.55;;;;;;;17.90;39.44;101462.53;4935920;29;20060;-86
2022/02/27 03:51:28;;;;;;;25.67;6.97;;;;;;;17.97;39.18;101463.56;4935748;29;20471;-78
2022/02/27 03:53:53;;;;;;;19.80;7.05;;;;;;;18.11;38.75;101460.47;4935759;29;20031;-79
2022/02/27 03:56:19;;;;;;;25.70;7.18;;;;;;;17.96;39.06;101461.97;4935642;29;20038;-79
2022/02/27 03:58:45;;;;;;;22.95;6.45;;;;;;;17.97;38.92;101455.28;4935818;29;20114;-79
2022/02/27 04:01:10;;;;;;;22.63;6.18;;;;;;;17.97;39.01;101448.94;4935666;29;20032;-84
2022/02/27 04:03:36;;;;;;;23.98;4.95;;;;;;;18.12;38.67;101448.25;4935976;29;20028;-80
2022/02/27 04:06:01;;;;;;;27.42;6.43;;;;;;;18.08;38.77;101447.34;4890015;29;1327710;-78
2022/02/27 04:08:27;;;;;;;22.98;7.00;;;;;;;18.06;38.91;101449.66;4918939;29;20044;-79
2022/02/27 04:10:53;;;;;;;28.73;7.93;;;;;;;18.08;38.83;101452.06;4935611;29;20035;-79
2022/02/27 04:13:19;;;;;;;24.00;6.00;;;;;;;17.68;39.55;101456.28;4936281;29;20059;-83
2022/02/27 04:15:44;;;;;;;23.15;5.75;;;;;;;17.78;39.19;101445.97;4936376;29;20055;-79
2022/02/27 04:18:10;;;;;;;27.40;7.05;;;;;;;17.91;39.11;101447.56;4936307;29;20367;-79
2022/02/27 04:20:35;;;;;;;23.77;6.22;;;;;;;17.92;38.92;101438.13;4935806;29;20062;-78
2022/02/27 04:23:01;;;;;;;22.23;7.05;;;;;;;17.52;39.92;101429.66;4936118;29;20070;-78
2022/02/27 04:25:27;;;;;;;38.17;7.60;;;;;;;17.70;39.42;101418.09;4936088;29;20175;-87
2022/02/27 04:27:53;;;;;;;23.50;6.22;;;;;;;17.71;39.36;101411.41;4935310;29;20030;-78
2022/02/27 04:30:19;;;;;;;25.27;7.00;;;;;;;17.62;39.33;101396.06;4918955;29;20039;-78
2022/02/27 04:32:44;;;;;;;19.17;5.07;;;;;;;17.48;39.67;101415.72;4935849;29;20030;-78
2022/02/27 04:35:10;;;;;;;22.08;6.38;;;;;;;17.40;39.93;101419.41;4935923;29;20379;-78
2022/02/27 04:37:36;;;;;;;23.42;6.40;;;;;;;17.66;39.18;101419.88;4935805;29;20054;-79
2022/02/27 04:40:04;;;;;;;21.98;6.75;;;;;;;17.74;39.14;101434.78;4935717;29;20043;-79
2022/02/27 04:42:29;;;;;;;21.63;6.72;;;;;;;17.75;39.14;101451.00;4918589;29;20042;-82
2022/02/27 04:44:55;;;;;;;26.85;6.78;;;;;;;17.46;39.87;101442.91;4935747;29;20027;-78
2022/02/27 04:47:21;;;;;;;17.27;5.28;;;;;;;17.45;39.91;101446.78;4935522;29;20035;-84
2022/02/27 04:49:48;;;;;;;21.95;5.40;;;;;;;17.44;39.96;101445.97;4918535;29;20039;-79
2022/02/27 04:52:15;;;;;;;21.75;6.13;;;;;;;17.28;40.06;101442.25;4935529;29;20027;-79
2022/02/27 04:54:42;;;;;;;24.13;6.30;;;;;;;17.31;40.17;101444.38;4918531;29;20506;-79
2022/02/27 04:57:08;;;;;;;25.60;6.05;;;;;;;17.29;40.15;101432.81;4935665;29;20031;-78
2022/02/27 04:59:34;;;;;;;25.77;5.90;;;;;;;17.26;40.12;101418.91;4935494;29;20038;-78
2022/02/27 05:01:59;;;;;;;27.15;7.22;;;;;;;17.25;40.06;101412.56;4935433;29;20059;-78
2022/02/27 05:04:25;;;;;;;20.85;5.70;;;;;;;17.23;40.12;101417.66;4935507;29;20467;-78
2022/02/27 05:06:50;;;;;;;25.42;6.22;;;;;;;17.05;40.53;101424.47;4935311;29;20415;-79
2022/02/27 05:09:17;;;;;;;18.45;6.25;;;;;;;17.04;40.39;101426.44;4935464;29;20028;-78
2022/02/27 05:11:44;;;;;;;35.08;8.05;;;;;;;16.89;40.80;101430.63;4935119;29;20035;-78
2022/02/27 05:14:10;;;;;;;32.05;7.95;;;;;;;17.01;40.44;101426.31;4935407;29;20032;-78
2022/02/27 05:16:35;;;;;;;26.73;7.07;;;;;;;16.88;40.65;101440.06;4935244;29;20091;-78
2022/02/27 05:19:01;;;;;;;19.70;6.90;;;;;;;16.97;40.58;101439.19;4935316;29;20038;-78
2022/02/27 05:21:26;;;;;;;23.20;5.43;;;;;;;17.03;40.19;101437.81;4935271;29;20641;-79
2022/02/27 05:23:52;;;;;;;22.73;5.63;;;;;;;16.95;40.52;101430.44;4935303;29;20394;-78
2022/02/27 05:26:18;;;;;;;25.85;6.15;;;;;;;17.01;40.25;101429.09;4918061;29;20035;-78
2022/02/27 05:28:46;;;;;;;17.42;5.22;;;;;;;16.57;41.02;101421.16;4935272;29;20039;-77
2022/02/27 05:31:13;;;;;;;21.08;5.43;;;;;;;16.91;40.32;101408.22;4935116;29;20479;-78
2022/02/27 05:33:39;;;;;;;27.48;7.25;;;;;;;16.60;40.80;101412.19;4935203;29;20471;-78
2022/02/27 05:36:05;;;;;;;20.83;4.20;;;;;;;16.56;41.03;101399.41;4935134;29;20027;-78
2022/02/27 05:38:30;;;;;;;25.48;4.80;;;;;;;16.21;41.68;101399.66;4935122;29;20071;-79
2022/02/27 05:40:56;;;;;;;16.08;4.88;;;;;;;16.44;41.07;101394.63;4937480;29;20020;-78
2022/02/27 05:43:21;;;;;;;26.38;5.78;;;;;;;16.30;41.35;101397.66;4938965;29;20038;-78
2022/02/27 05:45:47;;;;;;;18.95;4.68;;;;;;;16.44;40.95;101405.66;4938736;29;20023;-78
2022/02/27 05:48:12;;;;;;;17.23;5.05;;;;;;;16.50;40.89;101398.81;4938818;29;20035;-84
2022/02/27 05:50:38;;;;;;;22.00;6.18;;;;;;;16.62;40.61;101411.84;4938824;29;20059;-78
2022/02/27 05:53:04;;;;;;;24.13;6.43;;;;;;;16.36;41.31;101396.31;4938800;29;20031;-78
2022/02/27 05:55:30;;;;;;;23.17;6.32;;;;;;;16.38;41.15;101399.53;4938710;29;20070;-78
2022/02/27 05:57:55;;;;;;;22.42;5.63;;;;;;;16.39;41.19;101378.28;4938816;29;20102;-78
2022/02/27 06:00:21;;;;;;;22.60;5.55;;;;;;;16.52;40.72;101382.72;4938657;29;20035;-80
2022/02/27 06:02:46;;;;;;;22.33;5.70;;;;;;;16.54;40.88;101385.94;4938718;29;20039;-78
2022/02/27 06:05:12;;;;;;;21.98;5.63;;;;;;;16.71;40.37;101403.53;4938183;29;20561;-78
2022/02/27 06:07:38;;;;;;;18.55;4.85;;;;;;;16.58;40.63;101413.69;4938505;29;20031;-78
2022/02/27 06:10:05;;;;;;;38.78;7.03;;;;;;;16.54;40.62;101413.53;4938174;29;20110;-78
2022/02/27 06:12:30;;;;;;;19.52;5.28;;;;;;;16.31;41.25;101420.53;4921417;29;20027;-85
2022/02/27 06:14:56;;;;;;;14.02;5.68;;;;;;;16.59;40.50;101424.38;4938527;29;20035;-77
2022/02/27 06:17:22;;;;;;;17.63;5.15;;;;;;;16.65;40.44;101439.59;4938277;29;20032;-78
2022/02/27 06:19:47;;;;;;;14.43;4.50;;;;;;;16.48;40.66;101444.44;4938339;29;20051;-78
2022/02/27 06:22:13;;;;;;;16.48;5.57;;;;;;;16.55;40.39;101452.94;4938029;29;20027;-78
2022/02/27 06:24:38;;;;;;;20.42;5.80;;;;;;;16.63;40.31;101460.38;4920954;29;20467;-78
2022/02/27 06:27:04;;;;;;;20.33;5.28;;;;;;;16.38;40.81;101434.59;4938018;29;20024;-78
2022/02/27 06:29:30;;;;;;;19.23;5.45;;;;;;;16.32;40.97;101450.53;4938177;29;20055;-77
2022/02/27 06:31:55;;;;;;;27.23;5.78;;;;;;;16.49;40.50;101457.88;4938108;29;20034;-78
2022/02/27 06:34:21;;;;;;;25.98;7.82;;;;;;;16.59;40.30;101442.88;4921032;29;20398;-78
2022/02/27 06:36:46;;;;;;;22.88;5.72;;;;;;;16.78;39.64;101443.25;4938039;29;20423;-78
2022/02/27 06:39:12;;;;;;;21.75;5.65;;;;;;;16.19;41.17;101428.72;4937704;29;20031;-78
2022/02/27 06:41:37;;;;;;;28.67;6.20;;;;;;;16.33;41.05;101421.00;4938089;29;20036;-78
2022/02/27 06:44:03;;;;;;;16.35;4.70;;;;;;;16.44;40.59;101441.53;4937783;29;20401;-78
2022/02/27 06:46:29;;;;;;;25.77;6.20;;;;;;;16.36;40.98;101439.63;4937842;29;20107;-78
2022/02/27 06:48:55;;;;;;;19.33;5.32;;;;;;;16.16;41.29;101451.44;4937778;29;20056;-85
2022/02/27 06:51:20;;;;;;;20.98;5.60;;;;;;;16.21;41.05;101445.75;4937264;29;20062;-78
2022/02/27 06:53:46;;;;;;;21.55;6.45;;;;;;;16.37;40.59;101463.31;4937812;29;20500;-79
2022/02/27 06:56:12;;;;;;;19.38;7.13;;;;;;;16.60;40.05;101467.38;4937684;29;20027;-78
2022/02/27 06:58:38;;;;;;;20.00;4.93;;;;;;;16.41;40.52;101467.03;4937538;29;20395;-78
2022/02/27 07:01:03;;;;;;;22.92;5.53;;;;;;;16.32;40.58;101467.09;4937692;29;20024;-78
2022/02/27 07:03:29;;;;;;;20.92;5.32;;;;;;;15.97;41.27;101462.91;4937723;29;20086;-79
2022/02/27 07:05:55;;;;;;;12.25;5.28;;;;;;;16.12;40.86;101456.81;4937439;29;20051;-85
2022/02/27 07:08:20;;;;;;;15.25;5.65;;;;;;;16.28;40.47;101449.59;4937521;29;20110;-78
2022/02/27 07:10:46;;;;;;;17.83;5.07;;;;;;;16.29;40.53;101450.38;4937259;29;20039;-78
2022/02/27 07:13:11;;;;;;;21.75;5.38;;;;;;;16.04;40.99;101454.94;4937384;29;20077;-78
2022/02/27 07:15:37;;;;;;;21.13;5.60;;;;;;;16.25;40.71;101457.72;4920247;29;20043;-84
2022/02/27 07:18:04;;;;;;;15.82;5.22;;;;;;;16.14;40.80;101475.78;4920280;29;20533;-78
2022/02/27 07:20:30;;;;;;;24.75;5.20;;;;;;;16.19;40.76;101483.88;4937294;29;20031;-78
2022/02/27 07:22:56;;;;;;;24.13;4.95;;;;;;;16.32;40.40;101485.56;4936971;29;20031;-78
2022/02/27 07:25:21;;;;;;;20.58;5.20;;;;;;;16.20;40.71;101474.47;4937203;29;20038;-78
2022/02/27 07:27:47;;;;;;;26.70;6.05;;;;;;;16.30;40.59;101457.53;4920145;29;20087;-78
2022/02/27 07:30:13;;;;;;;18.80;4.78;;;;;;;16.28;40.60;101471.66;4937006;29;20398;-78
2022/02/27 07:32:38;;;;;;;18.58;5.32;;;;;;;16.05;41.15;101462.84;4936993;29;20038;-78
2022/02/27 07:35:05;;;;;;;21.55;5.70;;;;;;;16.24;40.79;101456.09;4936976;29;20039;-78
2022/02/27 07:37:30;;;;;;;23.00;5.35;;;;;;;16.07;41.13;101459.75;4936913;29;20060;-78
2022/02/27 07:39:56;;;;;;;19.13;5.78;;;;;;;16.30;40.80;101474.06;4936671;29;20107;-78
2022/02/27 07:42:22;;;;;;;19.83;6.22;;;;;;;16.38;40.49;101475.97;4937036;29;20128;-79
2022/02/27 07:44:48;;;;;;;14.30;4.88;;;;;;;16.21;41.30;101484.34;4919845;29;20031;-84
2022/02/27 07:47:13;;;;;;;18.38;5.20;;;;;;;16.38;40.81;101482.28;4936951;29;20036;-79
2022/02/27 07:49:39;;;;;;;20.65;5.97;;;;;;;16.47;40.71;101487.72;4936633;29;20111;-85
2022/02/27 07:52:05;;;;;;;21.65;4.80;;;;;;;16.51;40.76;101474.91;4936653;29;20032;-78
2022/02/27 07:54:31;;;;;;;26.10;6.03;;;;;;;16.60;40.54;101464.59;4936692;29;20027;-78
2022/02/27 07:56:56;;;;;;;17.45;4.75;;;;;;;16.59;40.66;101454.72;4936634;29;20035;-78
2022/02/27 07:59:22;;;;;;;16.40;4.75;;;;;;;16.90;39.99;101464.56;4936513;29;20039;-78
2022/02/27 08:01:48;;;;;;;19.33;6.07;;;;;;;16.79;40.24;101455.91;4936397;29;20449;-83
2022/02/27 08:04:14;;;;;;;18.10;4.53;;;;;;;16.94;40.20;101464.72;4935895;29;20035;-78
2022/02/27 08:06:40;;;;;;;16.20;4.15;;;;;;;16.88;40.29;101442.03;4936298;29;20103;-78
2022/02/27 08:09:06;;;;;;;15.02;5.03;;;;;;;16.62;40.56;101442.19;4936336;29;20039;-80
2022/02/27 08:11:32;;;;;;;27.77;4.93;;;;;;;17.06;39.82;101440.69;4936047;29;20031;-80
2022/02/27 08:13:58;;;;;;;21.90;4.75;;;;;;;17.05;39.94;101441.84;4936004;29;20035;-78
2022/02/27 08:16:24;;;;;;;25.10;5.68;;;;;;;17.02;39.97;101444.50;4936164;29;20035;-78
2022/02/27 08:18:50;;;;;;;16.75;5.50;;;;;;;17.11;39.72;101439.69;4935627;29;20035;-80
2022/02/27 08:21:16;;;;;;;17.05;4.55;;;;;;;17.05;40.21;101428.03;4936021;29;20028;-85
2022/02/27 08:23:41;;;;;;;24.83;5.70;;;;;;;17.01;40.25;101437.38;4936155;29;20118;-79
2022/02/27 08:26:07;;;;;;;24.25;6.70;;;;;;;17.19;39.96;101434.06;4935906;29;20039;-79
2022/02/27 08:28:33;;;;;;;19.38;5.13;;;;;;;16.90;40.68;101432.25;4936084;29;20115;-78
2022/02/27 08:31:00;;;;;;;18.33;4.53;;;;;;;17.13;40.34;101440.16;4935888;29;20036;-79
2022/02/27 08:33:26;;;;;;;20.90;6.75;;;;;;;17.15;40.50;101441.44;4935713;29;20031;-78
2022/02/27 08:35:52;;;;;;;21.77;4.97;;;;;;;17.06;40.70;101437.94;4935903;29;20032;-79
2022/02/27 08:38:18;;;;;;;17.33;4.60;;;;;;;17.15;40.46;101441.44;4936007;29;20423;-87
2022/02/27 08:40:44;;;;;;;15.02;4.82;;;;;;;17.11;40.43;101428.66;4935541;29;20028;-78
2022/02/27 08:43:09;;;;;;;21.77;4.80;;;;;;;17.40;39.90;101435.97;4935654;29;20093;-78
2022/02/27 08:45:35;;;;;;;18.60;5.30;;;;;;;17.08;40.37;101410.00;4935654;29;20031;-78
2022/02/27 08:48:01;;;;;;;18.58;6.20;;;;;;;16.91;40.66;101419.25;4935694;29;20031;-79
2022/02/27 08:50:26;;;;;;;15.85;5.38;;;;;;;17.24;40.07;101435.03;4935656;29;20099;-78
2022/02/27 08:52:52;;;;;;;20.85;6.22;;;;;;;17.19;40.35;101439.59;4935679;29;20116;-79
2022/02/27 08:55:18;;;;;;;21.58;5.05;;;;;;;16.61;41.44;101438.63;4935638;29;20032;-85
2022/02/27 08:57:45;;;;;;;20.73;5.90;;;;;;;17.07;40.48;101447.03;4935569;29;20380;-78
2022/02/27 09:00:12;;;;;;;14.90;4.18;;;;;;;16.69;41.08;101456.28;4935359;29;20055;-78
2022/02/27 09:02:38;;;;;;;18.45;5.07;;;;;;;17.20;40.41;101463.31;4935544;29;20032;-78
2022/02/27 09:05:05;;;;;;;17.70;4.82;;;;;;;16.91;40.68;101468.94;4935284;29;20098;-79
2022/02/27 09:07:34;;;;;;;20.27;6.22;;;;;;;16.96;40.69;101457.69;4918525;29;20442;-82
2022/02/27 09:09:59;;;;;;;14.68;4.57;;;;;;;17.20;40.07;101457.78;4935388;29;20032;-80
2022/02/27 09:12:25;;;;;;;23.60;6.22;;;;;;;17.13;40.27;101456.72;4931578;29;20525;-79
2022/02/27 09:14:52;;;;;;;20.02;5.75;;;;;;;17.36;39.92;101465.41;4932847;29;20058;-80
2022/02/27 09:17:19;;;;;;;20.30;5.85;;;;;;;17.12;40.40;101466.16;4918147;29;20034;-84
2022/02/27 09:19:46;;;;;;;22.08;6.03;;;;;;;17.47;39.97;101466.63;4935429;29;20034;-78
2022/02/27 09:22:12;;;;;;;15.50;5.53;;;;;;;16.96;41.04;101462.41;4935246;29;20181;-81
2022/02/27 09:24:37;;;;;;;16.15;4.80;;;;;;;17.14;40.79;101464.66;4935185;29;20115;-78
2022/02/27 09:27:04;;;;;;;18.73;4.93;;;;;;;16.97;41.02;101464.81;4934063;29;20036;-85
2022/02/27 09:29:30;;;;;;;16.67;5.75;;;;;;;17.45;40.16;101477.19;4934685;29;20107;-83
2022/02/27 09:31:55;;;;;;;23.85;6.88;;;;;;;17.69;39.78;101482.78;4934637;29;20114;-79
2022/02/27 09:34:22;;;;;;;29.98;6.57;;;;;;;17.73;39.80;101491.19;4934849;29;20386;-90
2022/02/27 09:36:47;;;;;;;25.65;6.55;;;;;;;17.95;39.37;101482.47;4918437;29;20036;-82
2022/02/27 09:39:13;;;;;;;16.70;5.50;;;;;;;18.05;39.27;101492.25;4920061;29;20028;-82
2022/02/27 09:41:39;;;;;;;35.35;7.43;;;;;;;17.96;39.25;101494.34;4902607;29;20195;-76
2022/02/27 09:44:07;;;;;;;15.57;5.78;;;;;;;17.84;39.53;101481.31;4918924;29;20032;-77
2022/02/27 09:46:33;;;;;;;27.23;6.10;;;;;;;17.96;39.26;101480.50;4918783;29;20028;-79
2022/02/27 09:48:59;;;;;;;26.27;6.38;;;;;;;17.96;39.12;101491.56;4919210;29;20043;-76
2022/02/27 09:51:25;;;;;;;21.60;5.35;;;;;;;18.37;38.26;101492.50;4919195;29;20035;-75
2022/02/27 09:53:51;;;;;;;31.02;7.15;;;;;;;18.24;38.86;101486.16;4918825;29;20476;-76
2022/02/27 09:56:17;;;;;;;20.17;5.00;;;;;;;17.94;39.38;101477.28;4917918;29;20110;-76
2022/02/27 09:58:43;;;;;;;29.63;8.45;;;;;;;18.14;38.92;101476.38;4918346;29;20043;-77
2022/02/27 10:01:09;;;;;;;37.55;7.43;;;;;;;18.17;38.91;101469.34;4917324;29;20032;-77
2022/02/27 10:03:35;;;;;;;35.85;6.60;;;;;;;17.92;39.56;101471.31;4918658;29;20040;-76
2022/02/27 10:06:06;;;;;;;24.83;6.90;;;;;;;18.12;39.34;101464.84;4918498;29;20107;-76
2022/02/27 10:08:40;;;;;;;27.23;6.43;;;;;;;18.26;39.10;101468.06;4920650;29;20031;-76
2022/02/27 10:11:06;;;;;;;27.73;8.05;;;;;;;18.44;38.70;101459.50;4923181;29;20031;-77
2022/02/27 10:13:34;;;;;;;15.65;5.65;;;;;;;18.56;38.45;101451.97;4935119;29;20032;-76
2022/02/27 10:16:07;;;;;;;23.25;8.32;;;;;;;18.38;38.64;101447.06;4935455;29;20043;-77
2022/02/27 10:18:39;;;;;;;20.25;6.38;;;;;;;18.42;38.72;101456.28;4934858;29;20031;-76
2022/02/27 10:21:25;;;;;;;25.92;5.72;;;;;;;18.41;38.72;101449.13;4935290;29;20030;-77
2022/02/27 10:23:56;;;;;;;19.05;6.68;;;;;;;18.52;38.53;101447.50;4935281;29;20054;-91
2022/02/27 10:26:24;;;;;;;28.10;7.07;;;;;;;18.54;38.47;101447.97;4936403;29;20035;-76
2022/02/27 10:29:24;;;;;;;26.77;7.95;;;;;;;18.56;38.35;101445.63;4936738;29;20095;-86
2022/02/27 10:31:51;;;;;;;21.60;5.25;;;;;;;18.73;38.01;101423.22;4938808;29;20102;-77
2022/02/27 10:34:28;;;;;;;21.45;5.53;;;;;;;18.57;38.58;101414.03;4936460;29;20031;-89
2022/02/27 10:37:08;;;;;;;30.92;7.57;;;;;;;18.92;37.90;101402.41;4938081;29;20028;-76
2022/02/27 10:39:38;;;;;;;21.13;7.60;;;;;;;18.49;38.53;101401.97;4937742;29;20027;-77
2022/02/27 10:42:18;;;;;;;31.80;7.95;;;;;;;18.89;37.88;101417.75;4938792;29;20027;-88
2022/02/27 10:44:59;;;;;;;20.92;5.80;;;;;;;18.57;38.32;101394.66;4937634;29;20386;-79
2022/02/27 10:47:31;;;;;;;21.55;6.13;;;;;;;18.45;38.56;101378.94;4936559;29;20028;-83
2022/02/27 10:50:00;;;;;;;23.20;6.28;;;;;;;18.61;38.26;101390.06;4937922;29;20471;-77
2022/02/27 10:52:27;;;;;;;28.88;6.38;;;;;;;18.70;38.03;101393.50;4937496;29;20031;-78
2022/02/27 10:55:12;;;;;;;40.78;9.85;;;;;;;18.58;38.27;101390.75;4937795;29;20031;-77
2022/02/27 10:57:40;;;;;;;26.83;7.47;;;;;;;18.80;38.05;101395.75;4936579;29;20498;-83
2022/02/27 11:00:19;;;;;;;18.30;6.40;;;;;;;18.43;38.54;101385.94;4937235;29;20035;-78
2022/02/27 11:02:59;;;;;;;17.30;6.05;;;;;;;17.74;39.66;101398.84;4936396;29;20471;-78
2022/02/27 11:05:28;;;;;;;20.17;5.80;;;;;;;18.64;38.15;101396.84;4937224;29;20060;-79
2022/02/27 11:07:56;;;;;;;22.88;7.45;;;;;;;18.54;38.16;101381.53;4936836;29;20038;-82
2022/02/27 11:10:29;;;;;;;23.00;6.43;;;;;;;18.27;38.97;101403.28;4937102;29;20027;-82
2022/02/27 11:13:00;;;;;;;17.80;5.60;;;;;;;18.61;38.56;101392.00;4937476;29;20031;-79
2022/02/27 11:15:26;;;;;;;33.47;8.45;;;;;;;18.58;38.43;101404.56;4937137;29;20016;-79